Flight Track Log - Related Links

Times and Time Zones

All times are in EDT time to prevent confusion due to time zone crossing. See the PDT4442 flight status page for this flight to view local times or setup timezone preferences in your user account.

Time Position Orientation Groundspeed Altitude Reporting Facility
EDT Latitude Longitude Course Direction KTS MPH feet Rate Location/Type
Tue 09:18:15 PM 40.7890 -73.8835 344° North  Level FlightAware Approximate
Tue 09:19:15 PM 40.8326 -73.9326 88° East  Level FlightAware Approximate
Tue 09:20:20 PM 40.8333 -73.9000 360° North 145 167 2,900  Level New York TRACON
Tue 09:21:20 PM 40.8833 -73.9000 360° North 148 170 4,500 1,500 Climbing New York TRACON
Tue 09:22:20 PM 40.9167 -73.9000 360° North 158 182 5,900 1,400 Climbing New York TRACON
Tue 09:23:20 PM 40.9667 -73.9000 333° Northwest 166 191 7,300 1,350 Climbing New York TRACON
Tue 09:24:20 PM 41.0167 -73.9333 339° North 170 196 8,600 1,250 Climbing New York TRACON
Tue 09:25:20 PM 41.0500 -73.9500 333° Northwest 187 215 9,800 1,200 Climbing New York TRACON
Tue 09:26:20 PM 41.1000 -73.9833 323° Northwest 186 214 11,000 850 Climbing New York TRACON
Tue 09:27:20 PM 41.1500 -74.0333 301° West 211 243 11,500 517 Climbing New York TRACON
Tue 09:28:16 PM 41.1753 -74.0900 300° West 222 255 12,000 256 Climbing New York Center
Tue 09:29:17 PM 41.2086 -74.1661 302° West 229 264 12,000  Level New York Center
Tue 09:30:18 PM 41.2439 -74.2422 303° West 239 275 12,000  Level New York Center
Tue 09:31:16 PM 41.2792 -74.3158 303° West 239 275 12,000  Level New York Center
Tue 09:32:17 PM 41.3144 -74.3894 301° West 239 275 12,000  Level New York Center
Tue 09:33:18 PM 41.3475 -74.4631 306° West 239 275 12,000  Level New York Center
Tue 09:34:16 PM 41.3850 -74.5317 300° West 239 275 12,000  Level New York Center
Tue 09:35:16 PM 41.4139 -74.5997 302° West 239 275 12,000  Level New York Center
Tue 09:36:17 PM 41.4508 -74.6792 308° West 239 275 12,000  Level New York Center
Tue 09:37:17 PM 41.4864 -74.7394 305° West 239 275 12,000 -50 Level New York Center
Tue 09:38:18 PM 41.5275 -74.8167 304° West 234 269 11,900  Descending New York Center
Tue 09:39:18 PM 41.5586 -74.8794 313° West 234 269 12,000 50 Climbing New York Center
Tue 09:40:17 PM 41.6083 -74.9519 336° Northwest 234 269 12,000 -39 Level New York Center
Tue 09:41:51 PM 41.7042 -75.0094 324° Northwest 235 270 11,900 -39 Descending Boston Center
Tue 09:42:51 PM 41.7511 -75.0558 326° Northwest 242 278 11,900  Level Boston Center
Tue 09:43:51 PM 41.8125 -75.1114 333° Northwest 242 278 11,900 50 Level Boston Center
Tue 09:44:51 PM 41.8678 -75.1500 329° Northwest 242 278 12,000 50 Climbing Boston Center
Tue 09:45:51 PM 41.9250 -75.1969 327° Northwest 242 278 12,000  Level Boston Center
Tue 09:46:51 PM 41.9822 -75.2469 325° Northwest 242 278 12,000  Level Boston Center
Tue 09:47:51 PM 42.0350 -75.2969 327° Northwest 242 278 12,000 -50 Level Boston Center
Tue 09:48:51 PM 42.0922 -75.3472 338° Northwest 242 278 11,900  Descending Boston Center
Tue 09:49:51 PM 42.1581 -75.3839 333° Northwest 242 278 12,000  Climbing Boston Center
Tue 09:50:51 PM 42.2194 -75.4258 332° Northwest 242 278 11,900 -400 Descending Boston Center
Tue 09:51:51 PM 42.2828 -75.4711 335° Northwest 242 278 11,200 -450 Descending Boston Center
Tue 09:52:51 PM 42.3464 -75.5106 329° Northwest 247 284 11,000 -104 Descending Boston Center
Tue 09:53:46 PM 42.4094 -75.5617 337° Northwest 249 287 11,000 -52 Level Boston Center
Tue 09:54:47 PM 42.4731 -75.5986 332° Northwest 246 283 10,900  Descending Boston Center
Tue 09:55:48 PM 42.5325 -75.6411 326° Northwest 245 282 11,000 50 Climbing Boston Center
Tue 09:56:48 PM 42.5872 -75.6919 324° Northwest 237 273 11,000 -545 Level Boston Center
Tue 09:57:49 PM 42.6442 -75.7483 324° Northwest 253 291 9,900 -1,200 Descending Boston Center
Tue 09:58:43 PM 42.6967 -75.7994 322° Northwest 257 296 8,700 -1,565 Descending Boston Center
Tue 09:59:44 PM 42.7533 -75.8589 324° Northwest 255 293 6,900 -1,869 Descending Boston Center
Tue 10:00:45 PM 42.8100 -75.9158 336° Northwest 248 285 4,900 -1,438 Descending Boston Center
Tue 10:01:45 PM 42.8714 -75.9533 340° North 241 277 4,000 -545 Descending Boston Center
Tue 10:02:46 PM 42.9289 -75.9822 337° Northwest 221 254 3,800 -238 Descending Boston Center
Tue 10:03:51 PM 42.9842 -76.0136 350° North 220 253 3,500 -545 Descending Boston Center
Tue 10:04:47 PM 43.0483 -76.0289 North 226 260 2,700 -700 Descending Boston Center
Tue 10:05:51 PM 43.1008 -76.0206 289° West 207 238 2,100 -823 Descending Boston Center
Tue 10:06:51 PM 43.1100 -76.0581 287° West 129 148 1,000 -850 Descending Boston Center
Tue 10:07:51 PM 43.1192 -76.0986 287° West 103 119 400 -600 Descending Boston Center

Login

Don't have an account? Register now (free) for customized features, flight alerts, and more!